sensor_id;sensor_type;location;lat;lon;timestamp;pressure;altitude;pressure_sealevel;temperature;humidity
63493;BME280;49638;47.526;10.028;2023-03-25T00:01:23;91289.03;;;6.56;82.80
63493;BME280;49638;47.526;10.028;2023-03-25T00:04:24;91279.06;;;6.58;82.64
63493;BME280;49638;47.526;10.028;2023-03-25T00:07:26;91270.41;;;6.57;82.33
63493;BME280;49638;47.526;10.028;2023-03-25T00:10:26;91264.47;;;6.50;82.01
63493;BME280;49638;47.526;10.028;2023-03-25T00:13:26;91274.97;;;6.50;82.23
63493;BME280;49638;47.526;10.028;2023-03-25T00:16:26;91286.50;;;6.61;82.62
63493;BME280;49638;47.526;10.028;2023-03-25T00:19:27;91274.16;;;6.61;82.01
63493;BME280;49638;47.526;10.028;2023-03-25T00:22:27;91279.75;;;6.65;81.82
63493;BME280;49638;47.526;10.028;2023-03-25T00:25:27;91265.16;;;6.57;82.17
63493;BME280;49638;47.526;10.028;2023-03-25T00:28:30;91276.91;;;6.67;82.23
63493;BME280;49638;47.526;10.028;2023-03-25T00:31:30;91279.53;;;6.67;81.87
63493;BME280;49638;47.526;10.028;2023-03-25T00:34:31;91291.75;;;6.73;82.26
63493;BME280;49638;47.526;10.028;2023-03-25T00:37:34;91282.25;;;6.72;81.98
63493;BME280;49638;47.526;10.028;2023-03-25T00:40:34;91272.22;;;6.69;81.91
63493;BME280;49638;47.526;10.028;2023-03-25T00:43:34;91273.03;;;6.69;81.84
63493;BME280;49638;47.526;10.028;2023-03-25T00:46:35;91274.38;;;6.72;81.72
63493;BME280;49638;47.526;10.028;2023-03-25T00:49:35;91277.13;;;6.77;81.72
63493;BME280;49638;47.526;10.028;2023-03-25T00:52:35;91277.13;;;6.77;82.01
63493;BME280;49638;47.526;10.028;2023-03-25T00:55:35;91260.13;;;6.68;82.25
63493;BME280;49638;47.526;10.028;2023-03-25T00:58:36;91278.13;;;6.76;82.40
63493;BME280;49638;47.526;10.028;2023-03-25T01:01:36;91289.22;;;6.78;82.28
63493;BME280;49638;47.526;10.028;2023-03-25T01:04:38;91299.16;;;6.76;82.15
63493;BME280;49638;47.526;10.028;2023-03-25T01:07:39;91279.09;;;6.70;82.50
63493;BME280;49638;47.526;10.028;2023-03-25T01:10:40;91290.16;;;6.60;83.18
63493;BME280;49638;47.526;10.028;2023-03-25T01:13:41;91315.97;;;6.63;83.32
63493;BME280;49638;47.526;10.028;2023-03-25T01:16:41;91309.78;;;6.57;83.86
63493;BME280;49638;47.526;10.028;2023-03-25T01:19:42;91292.09;;;6.41;83.88
63493;BME280;49638;47.526;10.028;2023-03-25T01:22:42;91309.09;;;6.38;84.42
63493;BME280;49638;47.526;10.028;2023-03-25T01:25:42;91301.00;;;6.40;84.84
63493;BME280;49638;47.526;10.028;2023-03-25T01:28:43;91301.22;;;6.27;84.94
63493;BME280;49638;47.526;10.028;2023-03-25T01:31:43;91294.28;;;6.32;85.03
63493;BME280;49638;47.526;10.028;2023-03-25T01:34:44;91294.72;;;6.29;84.89
63493;BME280;49638;47.526;10.028;2023-03-25T01:37:45;91280.13;;;6.22;84.78
63493;BME280;49638;47.526;10.028;2023-03-25T01:40:47;91296.19;;;6.37;84.75
63493;BME280;49638;47.526;10.028;2023-03-25T01:44:02;91290.84;;;6.32;86.07
63493;BME280;49638;47.526;10.028;2023-03-25T01:47:04;91300.88;;;6.35;85.20
63493;BME280;49638;47.526;10.028;2023-03-25T01:50:06;91327.13;;;6.35;85.09
63493;BME280;49638;47.526;10.028;2023-03-25T01:53:08;91308.59;;;6.06;85.00
63493;BME280;49638;47.526;10.028;2023-03-25T01:56:12;91341.72;;;5.89;85.64
63493;BME280;49638;47.526;10.028;2023-03-25T01:59:16;91302.31;;;5.65;85.99
63493;BME280;49638;47.526;10.028;2023-03-25T02:02:19;91331.16;;;5.65;86.04
63493;BME280;49638;47.526;10.028;2023-03-25T02:05:47;91317.78;;;5.55;87.54
63493;BME280;49638;47.526;10.028;2023-03-25T02:08:52;91322.88;;;5.50;86.15
63493;BME280;49638;47.526;10.028;2023-03-25T02:11:53;91288.66;;;5.33;86.28
63493;BME280;49638;47.526;10.028;2023-03-25T02:14:54;91307.28;;;5.43;86.07
63493;BME280;49638;47.526;10.028;2023-03-25T02:18:13;91302.03;;;5.43;86.61
63493;BME280;49638;47.526;10.028;2023-03-25T02:32:13;91308.34;;;5.36;86.01
63493;BME280;49638;47.526;10.028;2023-03-25T02:39:29;91325.78;;;5.12;86.50
63493;BME280;49638;47.526;10.028;2023-03-25T02:42:36;91325.00;;;5.11;85.89
63493;BME280;49638;47.526;10.028;2023-03-25T02:45:43;91304.97;;;4.98;86.18
63493;BME280;49638;47.526;10.028;2023-03-25T02:48:52;91321.66;;;5.04;86.92
63493;BME280;49638;47.526;10.028;2023-03-25T02:52:02;91305.22;;;4.97;86.04
63493;BME280;49638;47.526;10.028;2023-03-25T02:55:07;91314.47;;;5.00;85.73
63493;BME280;49638;47.526;10.028;2023-03-25T02:58:12;91305.84;;;4.92;85.41
63493;BME280;49638;47.526;10.028;2023-03-25T03:01:15;91311.91;;;4.93;85.53
63493;BME280;49638;47.526;10.028;2023-03-25T03:04:16;91310.28;;;4.92;85.57
63493;BME280;49638;47.526;10.028;2023-03-25T03:07:31;91302.38;;;4.98;86.68
63493;BME280;49638;47.526;10.028;2023-03-25T03:10:43;91299.25;;;4.90;86.23
63493;BME280;49638;47.526;10.028;2023-03-25T03:17:12;91288.47;;;4.98;85.42
63493;BME280;49638;47.526;10.028;2023-03-25T03:20:46;91316.25;;;4.99;85.19
63493;BME280;49638;47.526;10.028;2023-03-25T03:24:04;91297.13;;;4.98;85.25
63493;BME280;49638;47.526;10.028;2023-03-25T03:27:13;91300.09;;;5.02;84.58
63493;BME280;49638;47.526;10.028;2023-03-25T03:30:21;91297.91;;;4.99;84.85
63493;BME280;49638;47.526;10.028;2023-03-25T03:33:38;91324.34;;;4.97;85.26
63493;BME280;49638;47.526;10.028;2023-03-25T03:36:46;91323.25;;;5.05;85.19
63493;BME280;49638;47.526;10.028;2023-03-25T03:39:49;91323.47;;;5.04;85.37
63493;BME280;49638;47.526;10.028;2023-03-25T03:45:58;91317.00;;;5.06;85.13
63493;BME280;49638;47.526;10.028;2023-03-25T03:49:02;91312.56;;;5.07;85.08
63493;BME280;49638;47.526;10.028;2023-03-25T03:52:21;91321.66;;;5.04;84.91
63493;BME280;49638;47.526;10.028;2023-03-25T03:55:32;91307.59;;;4.98;85.51
63493;BME280;49638;47.526;10.028;2023-03-25T03:58:39;91300.09;;;5.02;84.72
63493;BME280;49638;47.526;10.028;2023-03-25T04:01:46;91316.53;;;5.09;84.94
63493;BME280;49638;47.526;10.028;2023-03-25T04:04:53;91311.66;;;5.13;85.10
63493;BME280;49638;47.526;10.028;2023-03-25T04:08:00;91284.75;;;5.06;83.56
63493;BME280;49638;47.526;10.028;2023-03-25T04:11:06;91277.59;;;5.13;83.72
63493;BME280;49638;47.526;10.028;2023-03-25T04:14:09;91290.63;;;5.19;83.92
63493;BME280;49638;47.526;10.028;2023-03-25T04:17:10;91285.38;;;5.19;83.79
63493;BME280;49638;47.526;10.028;2023-03-25T04:20:17;91307.16;;;5.20;83.13
63493;BME280;49638;47.526;10.028;2023-03-25T04:23:22;91294.28;;;5.18;82.90
63493;BME280;49638;47.526;10.028;2023-03-25T04:26:22;91318.13;;;5.29;83.24
63493;BME280;49638;47.526;10.028;2023-03-25T04:29:23;91367.34;;;5.27;83.41
63493;BME280;49638;47.526;10.028;2023-03-25T04:32:24;91387.63;;;5.13;84.44
63493;BME280;49638;47.526;10.028;2023-03-25T04:35:27;91418.69;;;4.91;84.52
63493;BME280;49638;47.526;10.028;2023-03-25T04:38:27;91420.91;;;4.69;85.03
63493;BME280;49638;47.526;10.028;2023-03-25T04:41:28;91419.34;;;4.36;85.11
63493;BME280;49638;47.526;10.028;2023-03-25T04:44:29;91416.81;;;4.23;85.19
63493;BME280;49638;47.526;10.028;2023-03-25T04:47:32;91408.19;;;4.22;85.29
63493;BME280;49638;47.526;10.028;2023-03-25T04:50:32;91407.66;;;4.07;85.32
63493;BME280;49638;47.526;10.028;2023-03-25T04:53:33;91402.09;;;3.97;86.12
63493;BME280;49638;47.526;10.028;2023-03-25T04:56:33;91418.03;;;3.95;86.13
63493;BME280;49638;47.526;10.028;2023-03-25T04:59:36;91417.44;;;3.87;85.72
63493;BME280;49638;47.526;10.028;2023-03-25T05:02:36;91410.13;;;3.70;86.13
63493;BME280;49638;47.526;10.028;2023-03-25T05:05:37;91414.69;;;3.82;86.31
63493;BME280;49638;47.526;10.028;2023-03-25T05:08:38;91409.25;;;3.76;86.78
63493;BME280;49638;47.526;10.028;2023-03-25T05:11:38;91417.53;;;3.73;86.49
63493;BME280;49638;47.526;10.028;2023-03-25T05:14:40;91414.16;;;3.66;86.59
63493;BME280;49638;47.526;10.028;2023-03-25T05:17:42;91408.91;;;3.66;86.39
63493;BME280;49638;47.526;10.028;2023-03-25T05:20:45;91400.31;;;3.59;86.36
63493;BME280;49638;47.526;10.028;2023-03-25T05:23:46;91397.00;;;3.39;86.88
63493;BME280;49638;47.526;10.028;2023-03-25T05:26:46;91403.25;;;3.31;87.08
63493;BME280;49638;47.526;10.028;2023-03-25T05:29:46;91410.88;;;3.32;87.04
63493;BME280;49638;47.526;10.028;2023-03-25T05:32:47;91407.28;;;3.34;87.24
63493;BME280;49638;47.526;10.028;2023-03-25T05:35:49;91393.84;;;3.23;87.25
63493;BME280;49638;47.526;10.028;2023-03-25T05:38:51;91396.03;;;3.33;87.23
63493;BME280;49638;47.526;10.028;2023-03-25T05:41:53;91401.88;;;3.22;87.40
63493;BME280;49638;47.526;10.028;2023-03-25T05:44:54;91403.69;;;3.21;87.17
63493;BME280;49638;47.526;10.028;2023-03-25T05:47:56;91392.28;;;3.09;87.86
63493;BME280;49638;47.526;10.028;2023-03-25T05:51:00;91387.22;;;3.21;87.66
63493;BME280;49638;47.526;10.028;2023-03-25T05:54:03;91382.41;;;3.18;87.56
63493;BME280;49638;47.526;10.028;2023-03-25T05:57:08;91406.88;;;3.37;87.41
63493;BME280;49638;47.526;10.028;2023-03-25T06:00:09;91411.69;;;3.40;87.42
63493;BME280;49638;47.526;10.028;2023-03-25T06:03:11;91408.63;;;3.43;87.33
63493;BME280;49638;47.526;10.028;2023-03-25T06:06:12;91381.72;;;3.36;87.29
63493;BME280;49638;47.526;10.028;2023-03-25T06:09:18;91393.13;;;3.48;87.31
63493;BME280;49638;47.526;10.028;2023-03-25T06:12:20;91391.53;;;3.47;87.72
63493;BME280;49638;47.526;10.028;2023-03-25T06:15:21;91389.31;;;3.50;87.36
63493;BME280;49638;47.526;10.028;2023-03-25T06:18:27;91396.75;;;3.53;87.58
63493;BME280;49638;47.526;10.028;2023-03-25T06:21:31;91396.75;;;3.53;87.95
63493;BME280;49638;47.526;10.028;2023-03-25T06:24:32;91396.75;;;3.53;87.94
63493;BME280;49638;47.526;10.028;2023-03-25T06:27:32;91405.94;;;3.56;87.77
63493;BME280;49638;47.526;10.028;2023-03-25T06:30:33;91389.50;;;3.49;88.08
63493;BME280;49638;47.526;10.028;2023-03-25T06:33:33;91409.16;;;3.58;87.81
63493;BME280;49638;47.526;10.028;2023-03-25T06:36:35;91401.13;;;3.53;88.01
63493;BME280;49638;47.526;10.028;2023-03-25T06:39:35;91400.16;;;3.54;87.99
63493;BME280;49638;47.526;10.028;2023-03-25T06:42:38;91382.84;;;3.53;87.91
63493;BME280;49638;47.526;10.028;2023-03-25T06:45:40;91382.66;;;3.54;88.44
63493;BME280;49638;47.526;10.028;2023-03-25T06:48:41;91394.91;;;3.61;88.56
63493;BME280;49638;47.526;10.028;2023-03-25T06:51:41;91394.09;;;3.60;89.16
63493;BME280;49638;47.526;10.028;2023-03-25T06:54:41;91388.53;;;3.50;88.61
63493;BME280;49638;47.526;10.028;2023-03-25T06:57:42;91414.81;;;3.55;88.53
63493;BME280;49638;47.526;10.028;2023-03-25T07:00:42;91414.50;;;3.31;88.11
63493;BME280;49638;47.526;10.028;2023-03-25T07:03:43;91417.75;;;3.20;88.37
63493;BME280;49638;47.526;10.028;2023-03-25T07:06:43;91427.59;;;3.18;88.42
63493;BME280;49638;47.526;10.028;2023-03-25T07:09:43;91420.19;;;3.15;88.23
63493;BME280;49638;47.526;10.028;2023-03-25T07:12:43;91419.16;;;3.23;88.84
63493;BME280;49638;47.526;10.028;2023-03-25T07:15:44;91422.94;;;3.34;88.84
63493;BME280;49638;47.526;10.028;2023-03-25T07:18:44;91411.88;;;3.38;88.64
63493;BME280;49638;47.526;10.028;2023-03-25T07:21:45;91405.19;;;3.49;88.45
63493;BME280;49638;47.526;10.028;2023-03-25T07:24:45;91409.56;;;3.62;88.46
63493;BME280;49638;47.526;10.028;2023-03-25T07:27:46;91414.31;;;3.78;88.42
63493;BME280;49638;47.526;10.028;2023-03-25T07:30:46;91392.72;;;3.89;88.17
63493;BME280;49638;47.526;10.028;2023-03-25T07:33:46;91410.47;;;4.12;87.82
63493;BME280;49638;47.526;10.028;2023-03-25T07:36:47;91413.19;;;4.24;87.46
63493;BME280;49638;47.526;10.028;2023-03-25T07:39:47;91410.75;;;4.29;87.42
63493;BME280;49638;47.526;10.028;2023-03-25T07:42:47;91409.25;;;4.40;87.58
63493;BME280;49638;47.526;10.028;2023-03-25T07:45:48;91403.59;;;4.43;87.15
63493;BME280;49638;47.526;10.028;2023-03-25T07:48:48;91403.25;;;4.58;87.04
63493;BME280;49638;47.526;10.028;2023-03-25T07:51:48;91394.50;;;4.70;87.50
63493;BME280;49638;47.526;10.028;2023-03-25T07:54:49;91404.19;;;4.88;86.82
63493;BME280;49638;47.526;10.028;2023-03-25T07:57:49;91397.59;;;5.04;86.59
63493;BME280;49638;47.526;10.028;2023-03-25T08:00:49;91372.38;;;5.10;86.79
63493;BME280;49638;47.526;10.028;2023-03-25T08:03:49;91363.41;;;5.17;86.58
63493;BME280;49638;47.526;10.028;2023-03-25T08:06:50;91363.34;;;5.24;86.06
63493;BME280;49638;47.526;10.028;2023-03-25T08:09:50;91373.88;;;5.36;85.75
63493;BME280;49638;47.526;10.028;2023-03-25T08:12:51;91379.81;;;5.43;86.00
63493;BME280;49638;47.526;10.028;2023-03-25T08:15:55;91381.44;;;5.44;86.06
63493;BME280;49638;47.526;10.028;2023-03-25T08:18:55;91383.72;;;5.40;85.41
63493;BME280;49638;47.526;10.028;2023-03-25T08:21:56;91402.84;;;5.41;86.17
63493;BME280;49638;47.526;10.028;2023-03-25T08:24:56;91391.06;;;5.32;86.23
63493;BME280;49638;47.526;10.028;2023-03-25T08:27:57;91401.91;;;5.35;86.28
63493;BME280;49638;47.526;10.028;2023-03-25T08:30:57;91395.25;;;5.33;85.45
63493;BME280;49638;47.526;10.028;2023-03-25T08:33:59;91408.44;;;5.44;86.11
63493;BME280;49638;47.526;10.028;2023-03-25T08:36:59;91406.19;;;5.48;85.34
63493;BME280;49638;47.526;10.028;2023-03-25T08:40:04;91409.53;;;5.55;85.31
63493;BME280;49638;47.526;10.028;2023-03-25T08:43:06;91400.47;;;5.69;85.05
63493;BME280;49638;47.526;10.028;2023-03-25T08:46:07;91390.25;;;5.80;84.43
63493;BME280;49638;47.526;10.028;2023-03-25T08:49:07;91401.19;;;5.77;84.91
63493;BME280;49638;47.526;10.028;2023-03-25T08:52:07;91400.66;;;5.86;84.76
63493;BME280;49638;47.526;10.028;2023-03-25T08:55:09;91385.47;;;5.95;84.51
63493;BME280;49638;47.526;10.028;2023-03-25T08:58:10;91369.53;;;5.90;84.13
63493;BME280;49638;47.526;10.028;2023-03-25T09:01:10;91385.81;;;5.99;84.49
63493;BME280;49638;47.526;10.028;2023-03-25T09:04:11;91368.25;;;5.99;84.60
63493;BME280;49638;47.526;10.028;2023-03-25T09:07:12;91387.81;;;6.15;84.08
63493;BME280;49638;47.526;10.028;2023-03-25T09:10:12;91374.88;;;6.13;83.96
63493;BME280;49638;47.526;10.028;2023-03-25T09:13:13;91367.13;;;6.07;84.10
63493;BME280;49638;47.526;10.028;2023-03-25T09:16:13;91393.69;;;6.10;83.99
63493;BME280;49638;47.526;10.028;2023-03-25T09:19:13;91381.47;;;6.04;83.96
63493;BME280;49638;47.526;10.028;2023-03-25T09:22:14;91376.81;;;6.06;84.01
63493;BME280;49638;47.526;10.028;2023-03-25T09:25:15;91375.34;;;6.10;84.16
63493;BME280;49638;47.526;10.028;2023-03-25T09:28:15;91387.72;;;6.22;83.52
63493;BME280;49638;47.526;10.028;2023-03-25T09:31:15;91385.88;;;6.22;83.79
63493;BME280;49638;47.526;10.028;2023-03-25T09:34:16;91377.50;;;6.13;83.96
63493;BME280;49638;47.526;10.028;2023-03-25T09:37:16;91386.28;;;6.07;84.01
63493;BME280;49638;47.526;10.028;2023-03-25T09:40:18;91392.94;;;5.91;84.01
63493;BME280;49638;47.526;10.028;2023-03-25T09:43:48;91385.50;;;5.88;84.09
63493;BME280;49638;47.526;10.028;2023-03-25T09:46:51;91394.94;;;5.78;84.12
63493;BME280;49638;47.526;10.028;2023-03-25T09:49:56;91385.63;;;5.63;83.76
63493;BME280;49638;47.526;10.028;2023-03-25T09:56:53;91372.91;;;5.49;84.46
63493;BME280;49638;47.526;10.028;2023-03-25T09:59:56;91355.25;;;5.44;84.16
63493;BME280;49638;47.526;10.028;2023-03-25T10:12:34;91350.13;;;6.09;83.93
63493;BME280;49638;47.526;10.028;2023-03-25T10:15:54;91347.53;;;6.21;84.46
63493;BME280;49638;47.526;10.028;2023-03-25T10:22:23;91344.59;;;6.41;83.88
63493;BME280;49638;47.526;10.028;2023-03-25T10:25:28;91330.56;;;6.47;83.28
63493;BME280;49638;47.526;10.028;2023-03-25T10:28:35;91320.75;;;6.43;82.27
63493;BME280;49638;47.526;10.028;2023-03-25T10:31:42;91350.31;;;6.50;83.25
63493;BME280;49638;47.526;10.028;2023-03-25T10:34:49;91347.13;;;6.59;83.21
63493;BME280;49638;47.526;10.028;2023-03-25T10:37:53;91344.16;;;6.68;83.49
63493;BME280;49638;47.526;10.028;2023-03-25T10:41:04;91343.94;;;6.69;82.49
63493;BME280;49638;47.526;10.028;2023-03-25T10:44:10;91352.59;;;6.81;83.56
63493;BME280;49638;47.526;10.028;2023-03-25T10:47:14;91329.63;;;6.88;82.67
63493;BME280;49638;47.526;10.028;2023-03-25T10:50:18;91335.22;;;6.92;82.50
63493;BME280;49638;47.526;10.028;2023-03-25T10:53:24;91328.72;;;6.95;81.38
63493;BME280;49638;47.526;10.028;2023-03-25T10:56:36;91326.06;;;7.06;82.33
63493;BME280;49638;47.526;10.028;2023-03-25T11:00:03;91306.19;;;7.10;79.43
63493;BME280;49638;47.526;10.028;2023-03-25T11:03:14;91308.56;;;7.24;80.25
63493;BME280;49638;47.526;10.028;2023-03-25T11:06:24;91297.63;;;7.44;80.50
63493;BME280;49638;47.526;10.028;2023-03-25T11:09:30;91299.03;;;7.63;80.43
63493;BME280;49638;47.526;10.028;2023-03-25T11:12:31;91291.59;;;7.72;80.92
63493;BME280;49638;47.526;10.028;2023-03-25T11:15:39;91282.03;;;7.82;79.17
63493;BME280;49638;47.526;10.028;2023-03-25T11:18:40;91280.06;;;7.90;79.93
63493;BME280;49638;47.526;10.028;2023-03-25T11:21:45;91289.13;;;7.82;80.63
63493;BME280;49638;47.526;10.028;2023-03-25T11:24:49;91300.13;;;7.79;80.94
63493;BME280;49638;47.526;10.028;2023-03-25T11:28:04;91305.13;;;7.80;80.96
63493;BME280;49638;47.526;10.028;2023-03-25T11:31:17;91271.97;;;7.79;80.54
63493;BME280;49638;47.526;10.028;2023-03-25T11:34:19;91280.59;;;7.75;80.12
63493;BME280;49638;47.526;10.028;2023-03-25T11:37:21;91304.09;;;7.65;79.05
63493;BME280;49638;47.526;10.028;2023-03-25T11:40:24;91294.38;;;7.53;80.31
63493;BME280;49638;47.526;10.028;2023-03-25T11:43:32;91283.53;;;7.50;79.86
63493;BME280;49638;47.526;10.028;2023-03-25T11:46:41;91301.00;;;7.27;79.50
63493;BME280;49638;47.526;10.028;2023-03-25T11:49:42;91314.84;;;7.23;80.55
63493;BME280;49638;47.526;10.028;2023-03-25T11:52:51;91314.84;;;7.23;80.34
63493;BME280;49638;47.526;10.028;2023-03-25T11:56:07;91306.41;;;7.21;79.68
63493;BME280;49638;47.526;10.028;2023-03-25T11:59:34;91304.31;;;7.23;80.62
63493;BME280;49638;47.526;10.028;2023-03-25T12:02:37;91319.09;;;7.12;80.35
63493;BME280;49638;47.526;10.028;2023-03-25T12:05:39;91308.72;;;7.05;80.40
63493;BME280;49638;47.526;10.028;2023-03-25T12:08:59;91319.34;;;6.99;78.25
63493;BME280;49638;47.526;10.028;2023-03-25T12:12:11;91326.44;;;6.98;79.92
63493;BME280;49638;47.526;10.028;2023-03-25T12:18:36;91324.84;;;6.85;79.02
63493;BME280;49638;47.526;10.028;2023-03-25T12:47:09;91341.19;;;6.64;81.89
63493;BME280;49638;47.526;10.028;2023-03-25T13:07:05;91366.88;;;6.74;83.80
63493;BME280;49638;47.526;10.028;2023-03-25T13:10:20;91365.50;;;6.71;83.43
63493;BME280;49638;47.526;10.028;2023-03-25T13:13:23;91365.28;;;6.73;83.13
63493;BME280;49638;47.526;10.028;2023-03-25T13:16:28;91370.66;;;6.66;83.46
63493;BME280;49638;47.526;10.028;2023-03-25T13:19:31;91376.13;;;6.64;83.53
63493;BME280;49638;47.526;10.028;2023-03-25T13:22:40;91369.47;;;6.62;84.49
63493;BME280;49638;47.526;10.028;2023-03-25T13:25:55;91368.34;;;6.58;84.60
63493;BME280;49638;47.526;10.028;2023-03-25T13:29:01;91390.69;;;6.49;84.42
63493;BME280;49638;47.526;10.028;2023-03-25T13:32:07;91370.63;;;6.43;84.58
63493;BME280;49638;47.526;10.028;2023-03-25T13:38:27;91375.06;;;6.54;88.29
63493;BME280;49638;47.526;10.028;2023-03-25T13:41:55;91365.84;;;6.63;86.62
63493;BME280;49638;47.526;10.028;2023-03-25T13:45:03;91360.59;;;6.75;84.57
63493;BME280;49638;47.526;10.028;2023-03-25T13:49:16;91339.69;;;6.80;84.62
63493;BME280;49638;47.526;10.028;2023-03-25T13:51:44;91343.81;;;6.87;84.06
63493;BME280;49638;47.526;10.028;2023-03-25T13:54:55;91335.22;;;6.92;84.02
63493;BME280;49638;47.526;10.028;2023-03-25T13:58:17;91343.91;;;7.04;83.69
63493;BME280;49638;47.526;10.028;2023-03-25T14:01:52;91349.16;;;7.04;85.00
63493;BME280;49638;47.526;10.028;2023-03-25T14:11:46;91343.78;;;7.11;82.20
63493;BME280;49638;47.526;10.028;2023-03-25T14:15:03;91334.06;;;7.11;81.70
63493;BME280;49638;47.526;10.028;2023-03-25T14:18:15;91337.16;;;7.20;82.88
63493;BME280;49638;47.526;10.028;2023-03-25T14:24:30;91349.13;;;7.16;81.05
63493;BME280;49638;47.526;10.028;2023-03-25T14:27:32;91343.66;;;7.18;81.96
63493;BME280;49638;47.526;10.028;2023-03-25T14:30:34;91336.78;;;7.17;80.90
63493;BME280;49638;47.526;10.028;2023-03-25T14:43:51;91340.91;;;7.24;77.86
63493;BME280;49638;47.526;10.028;2023-03-25T14:47:02;91365.44;;;7.30;77.70
63493;BME280;49638;47.526;10.028;2023-03-25T14:53:22;91349.59;;;7.25;78.61
63493;BME280;49638;47.526;10.028;2023-03-25T14:56:25;91357.56;;;7.30;77.77
63493;BME280;49638;47.526;10.028;2023-03-25T14:59:40;91362.03;;;7.29;74.48
63493;BME280;49638;47.526;10.028;2023-03-25T15:02:43;91349.78;;;7.35;77.40
63493;BME280;49638;47.526;10.028;2023-03-25T15:05:53;91358.38;;;7.30;76.24
63493;BME280;49638;47.526;10.028;2023-03-25T15:08:56;91326.00;;;7.30;76.65
63493;BME280;49638;47.526;10.028;2023-03-25T15:12:01;91338.16;;;7.31;76.29
63493;BME280;49638;47.526;10.028;2023-03-25T15:15:29;91332.06;;;7.42;73.97
63493;BME280;49638;47.526;10.028;2023-03-25T15:21:34;91363.72;;;7.47;75.36
63493;BME280;49638;47.526;10.028;2023-03-25T15:24:56;91356.38;;;7.49;75.41
63493;BME280;49638;47.526;10.028;2023-03-25T15:28:06;91360.03;;;7.48;74.95
63493;BME280;49638;47.526;10.028;2023-03-25T15:31:41;91337.41;;;7.47;72.18
63493;BME280;49638;47.526;10.028;2023-03-25T15:35:04;91356.84;;;7.46;71.22
63493;BME280;49638;47.526;10.028;2023-03-25T15:41:55;91351.38;;;7.36;72.35
63493;BME280;49638;47.526;10.028;2023-03-25T15:48:26;91358.16;;;7.20;72.06
63493;BME280;49638;47.526;10.028;2023-03-25T15:58:11;91340.44;;;7.16;72.57
63493;BME280;49638;47.526;10.028;2023-03-25T16:01:29;91344.56;;;7.11;71.77
63493;BME280;49638;47.526;10.028;2023-03-25T16:04:41;91337.94;;;7.09;70.87
63493;BME280;49638;47.526;10.028;2023-03-25T16:07:44;91340.56;;;7.09;73.63
63493;BME280;49638;47.526;10.028;2023-03-25T16:10:45;91333.94;;;7.06;72.06
63493;BME280;49638;47.526;10.028;2023-03-25T16:17:05;91323.91;;;6.92;72.64
63493;BME280;49638;47.526;10.028;2023-03-25T16:20:12;91331.09;;;6.96;71.50
63493;BME280;49638;47.526;10.028;2023-03-25T16:23:19;91332.13;;;6.95;71.88
63493;BME280;49638;47.526;10.028;2023-03-25T16:26:42;91333.97;;;6.95;68.83
63493;BME280;49638;47.526;10.028;2023-03-25T16:29:51;91339.69;;;6.92;69.67
63493;BME280;49638;47.526;10.028;2023-03-25T16:33:16;91333.97;;;6.95;68.46
63493;BME280;49638;47.526;10.028;2023-03-25T16:36:17;91338.44;;;6.94;72.30
63493;BME280;49638;47.526;10.028;2023-03-25T16:39:19;91342.66;;;6.95;72.11
63493;BME280;49638;47.526;10.028;2023-03-25T16:45:23;91321.41;;;6.85;71.78
63493;BME280;49638;47.526;10.028;2023-03-25T16:48:41;91347.22;;;6.88;71.34
63493;BME280;49638;47.526;10.028;2023-03-25T16:51:46;91350.09;;;6.86;71.70
63493;BME280;49638;47.526;10.028;2023-03-25T16:57:51;91365.63;;;6.88;72.24
63493;BME280;49638;47.526;10.028;2023-03-25T17:00:53;91347.00;;;6.78;71.80
63493;BME280;49638;47.526;10.028;2023-03-25T17:04:20;91350.75;;;6.82;70.62
63493;BME280;49638;47.526;10.028;2023-03-25T17:07:27;91349.41;;;6.79;71.46
63493;BME280;49638;47.526;10.028;2023-03-25T17:10:30;91345.28;;;6.72;71.65
63493;BME280;49638;47.526;10.028;2023-03-25T17:13:36;91352.25;;;6.78;71.63
63493;BME280;49638;47.526;10.028;2023-03-25T17:16:37;91364.94;;;6.81;72.06
63493;BME280;49638;47.526;10.028;2023-03-25T17:19:44;91353.41;;;6.70;71.05
63493;BME280;49638;47.526;10.028;2023-03-25T17:26:05;91363.13;;;6.70;72.22
63493;BME280;49638;47.526;10.028;2023-03-25T17:29:06;91365.06;;;6.62;71.63
63493;BME280;49638;47.526;10.028;2023-03-25T17:32:16;91360.72;;;6.56;70.80
63493;BME280;49638;47.526;10.028;2023-03-25T17:35:29;91369.38;;;6.69;70.32
63493;BME280;49638;47.526;10.028;2023-03-25T17:38:36;91383.44;;;6.62;71.76
63493;BME280;49638;47.526;10.028;2023-03-25T17:41:38;91397.44;;;6.45;72.63
63493;BME280;49638;47.526;10.028;2023-03-25T17:44:42;91406.97;;;6.27;73.61
63493;BME280;49638;47.526;10.028;2023-03-25T17:47:43;91422.13;;;6.13;76.16
63493;BME280;49638;47.526;10.028;2023-03-25T17:50:51;91422.66;;;6.04;76.57
63493;BME280;49638;47.526;10.028;2023-03-25T17:53:52;91416.13;;;5.95;75.52
63493;BME280;49638;47.526;10.028;2023-03-25T17:56:52;91417.00;;;5.88;76.04
63493;BME280;49638;47.526;10.028;2023-03-25T17:59:53;91402.34;;;5.81;76.38
63493;BME280;49638;47.526;10.028;2023-03-25T18:02:54;91411.16;;;5.86;76.72
63493;BME280;49638;47.526;10.028;2023-03-25T18:05:55;91412.97;;;5.86;76.98
63493;BME280;49638;47.526;10.028;2023-03-25T18:08:57;91427.69;;;5.87;77.03
63493;BME280;49638;47.526;10.028;2023-03-25T18:11:57;91416.47;;;5.80;77.25
63493;BME280;49638;47.526;10.028;2023-03-25T18:14:58;91403.53;;;5.66;77.46
63493;BME280;49638;47.526;10.028;2023-03-25T18:17:59;91422.31;;;5.82;77.43
63493;BME280;49638;47.526;10.028;2023-03-25T18:20:59;91414.22;;;5.83;77.80
63493;BME280;49638;47.526;10.028;2023-03-25T18:24:02;91404.41;;;5.79;78.08
63493;BME280;49638;47.526;10.028;2023-03-25T18:27:03;91387.38;;;5.69;78.30
63493;BME280;49638;47.526;10.028;2023-03-25T18:30:35;91396.97;;;5.76;79.85
63493;BME280;49638;47.526;10.028;2023-03-25T18:33:37;91393.91;;;5.79;78.21
63493;BME280;49638;47.526;10.028;2023-03-25T18:36:38;91383.88;;;5.76;78.07
63493;BME280;49638;47.526;10.028;2023-03-25T18:39:38;91373.03;;;5.72;78.25